Albin, Wyoming
Current Conditions -  °F | °C
As of 1:35 AM on Friday 21 Nov 2014 (Local Time) from K82V Reporting Station
Clear Clear  
Wind Chill: 30°   Ceiling: Unl
Heat Index: 30°   Visibility: 10mi
Dew Point: 19°   Wind: 0mph
Humidity: 64%   Direction: NA
Pressure: 29.95"   Gusts: NA
Location:  41.42°N, 104.1°W
Report Text: K82V 210835Z AUTO 00000KT 10SM CLR M01/M07 A2995 RMK AO2
Loading
Personal Weather Stations






























Interactive Weather Map New forecast layout! Learn more

10-Day Weather Forecast

Advertisements
Track Severe Weather on mobile